sensor_id;sensor_type;location;lat;lon;timestamp;P1;P2;P0
29460;PMS7003;16428;47.836;35.106;2024-03-02T00:00:21;45.00;35.00;26.00
29460;PMS7003;16428;47.836;35.106;2024-03-02T00:02:49;44.25;39.50;26.50
29460;PMS7003;16428;47.836;35.106;2024-03-02T00:05:17;45.00;39.00;28.75
29460;PMS7003;16428;47.836;35.106;2024-03-02T00:07:47;44.75;38.50;25.75
29460;PMS7003;16428;47.836;35.106;2024-03-02T00:10:23;51.50;39.00;27.50
29460;PMS7003;16428;47.836;35.106;2024-03-02T00:12:55;38.00;33.50;22.75
29460;PMS7003;16428;47.836;35.106;2024-03-02T00:17:56;40.25;38.00;25.00
29460;PMS7003;16428;47.836;35.106;2024-03-02T00:20:25;39.25;37.25;26.25
29460;PMS7003;16428;47.836;35.106;2024-03-02T00:23:02;44.50;38.50;27.00
29460;PMS7003;16428;47.836;35.106;2024-03-02T00:28:05;46.00;36.25;25.25
29460;PMS7003;16428;47.836;35.106;2024-03-02T00:33:18;44.00;37.50;26.25
29460;PMS7003;16428;47.836;35.106;2024-03-02T00:35:47;40.75;35.75;26.00
29460;PMS7003;16428;47.836;35.106;2024-03-02T00:38:15;52.00;37.25;27.00
29460;PMS7003;16428;47.836;35.106;2024-03-02T00:40:43;53.50;43.25;31.75
29460;PMS7003;16428;47.836;35.106;2024-03-02T00:45:50;55.50;45.25;31.50
29460;PMS7003;16428;47.836;35.106;2024-03-02T00:48:17;57.33;46.33;31.33
29460;PMS7003;16428;47.836;35.106;2024-03-02T00:50:44;56.67;46.00;32.00
29460;PMS7003;16428;47.836;35.106;2024-03-02T00:53:13;51.33;43.00;30.67
29460;PMS7003;16428;47.836;35.106;2024-03-02T00:55:41;53.67;43.67;29.67
29460;PMS7003;16428;47.836;35.106;2024-03-02T00:58:11;58.33;47.33;33.00
29460;PMS7003;16428;47.836;35.106;2024-03-02T01:00:37;49.67;42.00;32.00
29460;PMS7003;16428;47.836;35.106;2024-03-02T01:03:05;58.67;45.33;31.00
29460;PMS7003;16428;47.836;35.106;2024-03-02T01:05:32;50.50;43.00;27.75
29460;PMS7003;16428;47.836;35.106;2024-03-02T01:07:59;45.50;39.50;27.00
29460;PMS7003;16428;47.836;35.106;2024-03-02T01:10:26;49.25;38.50;27.25
29460;PMS7003;16428;47.836;35.106;2024-03-02T01:12:54;40.50;35.50;25.75
29460;PMS7003;16428;47.836;35.106;2024-03-02T01:15:21;40.25;38.00;26.50
29460;PMS7003;16428;47.836;35.106;2024-03-02T01:17:48;50.50;39.25;28.00
29460;PMS7003;16428;47.836;35.106;2024-03-02T01:20:18;49.25;37.00;26.50
29460;PMS7003;16428;47.836;35.106;2024-03-02T01:22:46;45.25;38.75;27.50
29460;PMS7003;16428;47.836;35.106;2024-03-02T01:25:14;42.75;38.75;27.75
29460;PMS7003;16428;47.836;35.106;2024-03-02T01:27:41;45.50;38.00;27.00
29460;PMS7003;16428;47.836;35.106;2024-03-02T01:30:08;41.25;36.75;25.00
29460;PMS7003;16428;47.836;35.106;2024-03-02T01:32:37;45.25;36.00;27.00
29460;PMS7003;16428;47.836;35.106;2024-03-02T01:35:05;34.00;23.25;18.50
29460;PMS7003;16428;47.836;35.106;2024-03-02T01:37:33;48.00;38.00;26.00
29460;PMS7003;16428;47.836;35.106;2024-03-02T01:40:01;41.00;37.00;27.67
29460;PMS7003;16428;47.836;35.106;2024-03-02T01:42:29;44.50;38.00;26.50
29460;PMS7003;16428;47.836;35.106;2024-03-02T01:44:57;45.00;37.75;26.75
29460;PMS7003;16428;47.836;35.106;2024-03-02T01:47:24;57.00;42.00;29.33
29460;PMS7003;16428;47.836;35.106;2024-03-02T01:49:51;43.75;37.75;27.00
29460;PMS7003;16428;47.836;35.106;2024-03-02T01:52:18;49.33;40.33;27.33
29460;PMS7003;16428;47.836;35.106;2024-03-02T01:54:45;46.67;39.00;27.00
29460;PMS7003;16428;47.836;35.106;2024-03-02T01:57:12;44.67;38.33;27.33
29460;PMS7003;16428;47.836;35.106;2024-03-02T01:59:39;50.67;40.33;28.00
29460;PMS7003;16428;47.836;35.106;2024-03-02T02:02:06;47.67;38.33;26.33
29460;PMS7003;16428;47.836;35.106;2024-03-02T02:04:34;51.00;40.33;28.67
29460;PMS7003;16428;47.836;35.106;2024-03-02T02:07:01;49.67;42.67;29.67
29460;PMS7003;16428;47.836;35.106;2024-03-02T02:09:28;52.67;41.00;28.00
29460;PMS7003;16428;47.836;35.106;2024-03-02T02:11:55;42.67;37.33;26.33
29460;PMS7003;16428;47.836;35.106;2024-03-02T02:14:22;55.33;45.33;31.67
29460;PMS7003;16428;47.836;35.106;2024-03-02T02:16:49;49.67;39.00;27.00
29460;PMS7003;16428;47.836;35.106;2024-03-02T02:19:16;52.33;43.67;29.67
29460;PMS7003;16428;47.836;35.106;2024-03-02T02:21:43;55.67;41.00;27.00
29460;PMS7003;16428;47.836;35.106;2024-03-02T02:24:11;53.67;43.67;31.00
29460;PMS7003;16428;47.836;35.106;2024-03-02T02:26:39;56.67;44.00;31.00
29460;PMS7003;16428;47.836;35.106;2024-03-02T02:29:06;55.33;42.33;28.00
29460;PMS7003;16428;47.836;35.106;2024-03-02T02:31:40;48.00;39.00;28.00
29460;PMS7003;16428;47.836;35.106;2024-03-02T02:34:08;46.00;39.00;31.00
29460;PMS7003;16428;47.836;35.106;2024-03-02T02:36:39;53.67;40.67;29.33
29460;PMS7003;16428;47.836;35.106;2024-03-02T02:39:07;56.33;43.67;31.67
29460;PMS7003;16428;47.836;35.106;2024-03-02T02:41:38;33.33;32.67;27.00
29460;PMS7003;16428;47.836;35.106;2024-03-02T02:44:05;56.00;43.67;30.67
29460;PMS7003;16428;47.836;35.106;2024-03-02T02:46:32;56.00;41.00;28.00
29460;PMS7003;16428;47.836;35.106;2024-03-02T02:48:59;55.33;45.33;31.00
29460;PMS7003;16428;47.836;35.106;2024-03-02T02:51:27;53.33;39.00;27.33
29460;PMS7003;16428;47.836;35.106;2024-03-02T02:53:53;57.67;46.00;32.00
29460;PMS7003;16428;47.836;35.106;2024-03-02T02:56:20;51.33;40.33;28.67
29460;PMS7003;16428;47.836;35.106;2024-03-02T02:58:47;57.00;44.33;31.00
29460;PMS7003;16428;47.836;35.106;2024-03-02T03:01:15;55.67;47.00;32.67
29460;PMS7003;16428;47.836;35.106;2024-03-02T03:03:46;54.00;42.00;30.67
29460;PMS7003;16428;47.836;35.106;2024-03-02T03:06:13;57.67;42.67;27.00
29460;PMS7003;16428;47.836;35.106;2024-03-02T03:08:40;51.00;41.67;30.33
29460;PMS7003;16428;47.836;35.106;2024-03-02T03:11:07;50.67;38.00;27.67
29460;PMS7003;16428;47.836;35.106;2024-03-02T03:13:34;56.67;46.00;32.67
29460;PMS7003;16428;47.836;35.106;2024-03-02T03:16:01;52.67;38.33;24.00
29460;PMS7003;16428;47.836;35.106;2024-03-02T03:18:28;56.00;43.67;31.00
29460;PMS7003;16428;47.836;35.106;2024-03-02T03:20:55;49.33;43.33;30.33
29460;PMS7003;16428;47.836;35.106;2024-03-02T03:23:22;50.67;41.67;31.33
29460;PMS7003;16428;47.836;35.106;2024-03-02T03:25:49;51.67;43.00;30.00
29460;PMS7003;16428;47.836;35.106;2024-03-02T03:28:16;37.67;31.00;23.33
29460;PMS7003;16428;47.836;35.106;2024-03-02T03:30:44;48.00;40.00;28.00
29460;PMS7003;16428;47.836;35.106;2024-03-02T03:33:11;55.00;44.33;32.00
29460;PMS7003;16428;47.836;35.106;2024-03-02T03:35:38;61.33;47.00;34.00
29460;PMS7003;16428;47.836;35.106;2024-03-02T03:38:05;61.33;47.00;31.00
29460;PMS7003;16428;47.836;35.106;2024-03-02T03:40:32;64.67;49.00;35.33
29460;PMS7003;16428;47.836;35.106;2024-03-02T03:42:59;56.67;43.00;31.00
29460;PMS7003;16428;47.836;35.106;2024-03-02T03:45:26;55.33;44.33;31.00
29460;PMS7003;16428;47.836;35.106;2024-03-02T03:47:53;51.67;45.67;32.67
29460;PMS7003;16428;47.836;35.106;2024-03-02T03:50:21;56.67;42.00;31.00
29460;PMS7003;16428;47.836;35.106;2024-03-02T03:52:48;61.33;48.00;31.00
29460;PMS7003;16428;47.836;35.106;2024-03-02T03:55:15;59.67;45.00;31.00
29460;PMS7003;16428;47.836;35.106;2024-03-02T03:57:42;50.67;42.00;30.00
29460;PMS7003;16428;47.836;35.106;2024-03-02T04:00:09;60.00;45.00;31.33
29460;PMS7003;16428;47.836;35.106;2024-03-02T04:02:37;55.67;44.00;30.67
29460;PMS7003;16428;47.836;35.106;2024-03-02T04:05:04;42.33;32.33;19.67
29460;PMS7003;16428;47.836;35.106;2024-03-02T04:07:36;61.33;49.00;32.33
29460;PMS7003;16428;47.836;35.106;2024-03-02T04:10:07;50.67;42.00;29.67
29460;PMS7003;16428;47.836;35.106;2024-03-02T04:12:36;53.67;42.33;31.00
29460;PMS7003;16428;47.836;35.106;2024-03-02T04:15:06;55.00;43.00;30.00
29460;PMS7003;16428;47.836;35.106;2024-03-02T04:17:34;47.33;39.00;27.00
29460;PMS7003;16428;47.836;35.106;2024-03-02T04:22:49;52.33;44.33;29.00
29460;PMS7003;16428;47.836;35.106;2024-03-02T04:25:16;52.33;42.67;29.67
29460;PMS7003;16428;47.836;35.106;2024-03-02T04:27:43;59.67;42.33;29.33
29460;PMS7003;16428;47.836;35.106;2024-03-02T04:30:10;56.67;42.67;28.00
29460;PMS7003;16428;47.836;35.106;2024-03-02T04:32:37;58.33;43.00;29.00
29460;PMS7003;16428;47.836;35.106;2024-03-02T04:35:05;55.00;42.67;30.00
29460;PMS7003;16428;47.836;35.106;2024-03-02T04:37:34;51.67;44.33;30.67
29460;PMS7003;16428;47.836;35.106;2024-03-02T04:40:01;51.67;39.00;28.67
29460;PMS7003;16428;47.836;35.106;2024-03-02T04:42:29;51.67;38.00;26.00
29460;PMS7003;16428;47.836;35.106;2024-03-02T04:44:56;59.67;42.67;28.33
29460;PMS7003;16428;47.836;35.106;2024-03-02T04:47:23;50.00;39.67;28.67
29460;PMS7003;16428;47.836;35.106;2024-03-02T04:49:50;55.67;41.00;28.67
29460;PMS7003;16428;47.836;35.106;2024-03-02T04:52:17;62.33;45.00;29.67
29460;PMS7003;16428;47.836;35.106;2024-03-02T04:54:44;57.67;46.00;29.00
29460;PMS7003;16428;47.836;35.106;2024-03-02T04:57:30;51.67;42.67;27.00
29460;PMS7003;16428;47.836;35.106;2024-03-02T04:59:56;54.67;43.00;28.67
29460;PMS7003;16428;47.836;35.106;2024-03-02T05:02:23;44.00;38.00;27.33
29460;PMS7003;16428;47.836;35.106;2024-03-02T05:04:50;52.67;41.67;29.33
29460;PMS7003;16428;47.836;35.106;2024-03-02T05:07:18;54.67;42.00;27.67
29460;PMS7003;16428;47.836;35.106;2024-03-02T05:09:45;46.00;40.00;29.00
29460;PMS7003;16428;47.836;35.106;2024-03-02T05:12:12;45.00;36.50;27.75
29460;PMS7003;16428;47.836;35.106;2024-03-02T05:14:57;43.67;38.67;28.67
29460;PMS7003;16428;47.836;35.106;2024-03-02T05:17:24;41.00;39.00;28.00
29460;PMS7003;16428;47.836;35.106;2024-03-02T05:19:51;37.00;36.00;25.25
29460;PMS7003;16428;47.836;35.106;2024-03-02T05:22:18;39.25;34.00;24.00
29460;PMS7003;16428;47.836;35.106;2024-03-02T05:24:45;42.50;37.25;25.25
29460;PMS7003;16428;47.836;35.106;2024-03-02T05:27:12;38.25;35.75;24.00
29460;PMS7003;16428;47.836;35.106;2024-03-02T05:29:39;49.00;41.50;27.75
29460;PMS7003;16428;47.836;35.106;2024-03-02T05:32:06;33.00;27.50;22.00
29460;PMS7003;16428;47.836;35.106;2024-03-02T05:34:33;42.00;35.50;23.25
29460;PMS7003;16428;47.836;35.106;2024-03-02T05:37:02;35.50;31.25;20.50
29460;PMS7003;16428;47.836;35.106;2024-03-02T05:39:29;36.50;31.50;23.00
29460;PMS7003;16428;47.836;35.106;2024-03-02T05:41:56;32.75;30.25;22.50
29460;PMS7003;16428;47.836;35.106;2024-03-02T05:44:23;37.50;26.00;19.50
29460;PMS7003;16428;47.836;35.106;2024-03-02T05:46:50;22.25;14.50;8.75
29460;PMS7003;16428;47.836;35.106;2024-03-02T05:49:17;30.25;30.00;22.25
29460;PMS7003;16428;47.836;35.106;2024-03-02T05:51:44;27.50;26.00;19.25
29460;PMS7003;16428;47.836;35.106;2024-03-02T05:54:11;38.00;32.50;23.00
29460;PMS7003;16428;47.836;35.106;2024-03-02T05:56:38;40.25;32.50;23.50
29460;PMS7003;16428;47.836;35.106;2024-03-02T05:59:05;36.50;34.00;25.25
29460;PMS7003;16428;47.836;35.106;2024-03-02T06:01:43;28.00;26.25;23.00
29460;PMS7003;16428;47.836;35.106;2024-03-02T06:04:11;34.00;30.00;20.00
29460;PMS7003;16428;47.836;35.106;2024-03-02T06:06:38;34.75;33.50;23.50
29460;PMS7003;16428;47.836;35.106;2024-03-02T06:09:06;42.75;29.50;22.75
29460;PMS7003;16428;47.836;35.106;2024-03-02T06:11:36;32.00;30.50;22.75
29460;PMS7003;16428;47.836;35.106;2024-03-02T06:14:04;29.00;24.75;18.00
29460;PMS7003;16428;47.836;35.106;2024-03-02T06:16:32;31.25;27.50;22.50
29460;PMS7003;16428;47.836;35.106;2024-03-02T06:19:00;25.00;25.00;18.00
29460;PMS7003;16428;47.836;35.106;2024-03-02T06:21:27;25.00;24.00;18.25
29460;PMS7003;16428;47.836;35.106;2024-03-02T06:23:55;33.75;24.00;18.00
29460;PMS7003;16428;47.836;35.106;2024-03-02T06:26:23;28.75;23.75;18.25
29460;PMS7003;16428;47.836;35.106;2024-03-02T06:28:51;25.75;25.00;19.75
29460;PMS7003;16428;47.836;35.106;2024-03-02T06:31:19;28.50;24.50;21.50
29460;PMS7003;16428;47.836;35.106;2024-03-02T06:33:46;28.75;23.25;18.50
29460;PMS7003;16428;47.836;35.106;2024-03-02T06:36:13;27.75;23.25;17.50
29460;PMS7003;16428;47.836;35.106;2024-03-02T06:38:42;34.00;29.75;22.00
29460;PMS7003;16428;47.836;35.106;2024-03-02T06:41:09;32.00;27.75;21.25
29460;PMS7003;16428;47.836;35.106;2024-03-02T06:43:36;28.00;28.00;22.00
29460;PMS7003;16428;47.836;35.106;2024-03-02T06:46:04;26.25;25.00;19.50
29460;PMS7003;16428;47.836;35.106;2024-03-02T06:48:33;31.50;31.50;23.00
29460;PMS7003;16428;47.836;35.106;2024-03-02T06:51:00;23.00;23.00;16.00
29460;PMS7003;16428;47.836;35.106;2024-03-02T06:53:28;25.25;20.75;14.00
29460;PMS7003;16428;47.836;35.106;2024-03-02T06:55:55;28.00;24.75;16.00
29460;PMS7003;16428;47.836;35.106;2024-03-02T06:58:22;30.25;27.50;19.50
29460;PMS7003;16428;47.836;35.106;2024-03-02T07:00:49;26.00;24.75;19.25
29460;PMS7003;16428;47.836;35.106;2024-03-02T07:03:16;22.75;18.25;12.25
29460;PMS7003;16428;47.836;35.106;2024-03-02T07:05:43;25.75;21.00;14.50
29460;PMS7003;16428;47.836;35.106;2024-03-02T07:08:11;23.75;23.75;18.50
29460;PMS7003;16428;47.836;35.106;2024-03-02T07:10:38;31.00;22.75;18.25
29460;PMS7003;16428;47.836;35.106;2024-03-02T07:13:05;24.75;22.75;15.25
29460;PMS7003;16428;47.836;35.106;2024-03-02T07:15:32;16.50;12.50;9.00
29460;PMS7003;16428;47.836;35.106;2024-03-02T07:18:17;25.00;22.25;18.25
29460;PMS7003;16428;47.836;35.106;2024-03-02T07:20:44;32.00;26.25;19.00
29460;PMS7003;16428;47.836;35.106;2024-03-02T07:23:11;20.00;20.00;14.00
29460;PMS7003;16428;47.836;35.106;2024-03-02T07:25:38;22.50;22.50;16.75
29460;PMS7003;16428;47.836;35.106;2024-03-02T07:28:09;23.75;17.75;12.50
29460;PMS7003;16428;47.836;35.106;2024-03-02T07:30:36;26.00;25.00;17.00
29460;PMS7003;16428;47.836;35.106;2024-03-02T07:33:05;29.50;24.75;20.00
29460;PMS7003;16428;47.836;35.106;2024-03-02T07:35:33;27.25;20.25;14.25
29460;PMS7003;16428;47.836;35.106;2024-03-02T07:38:00;23.00;20.75;15.75
29460;PMS7003;16428;47.836;35.106;2024-03-02T07:40:27;19.50;16.50;11.00
29460;PMS7003;16428;47.836;35.106;2024-03-02T07:42:54;26.25;21.75;17.50
29460;PMS7003;16428;47.836;35.106;2024-03-02T07:45:22;27.25;23.75;17.50
29460;PMS7003;16428;47.836;35.106;2024-03-02T07:47:49;30.50;20.75;16.00
29460;PMS7003;16428;47.836;35.106;2024-03-02T07:50:16;29.50;22.25;17.25
29460;PMS7003;16428;47.836;35.106;2024-03-02T07:52:44;25.25;21.00;16.00
29460;PMS7003;16428;47.836;35.106;2024-03-02T07:55:11;21.50;20.75;16.25
29460;PMS7003;16428;47.836;35.106;2024-03-02T07:57:38;26.25;25.50;17.25
29460;PMS7003;16428;47.836;35.106;2024-03-02T08:00:05;24.00;22.50;19.25
29460;PMS7003;16428;47.836;35.106;2024-03-02T08:02:34;28.50;23.50;17.50
29460;PMS7003;16428;47.836;35.106;2024-03-02T08:05:02;35.25;31.00;23.00
29460;PMS7003;16428;47.836;35.106;2024-03-02T08:07:29;30.00;27.00;20.50
29460;PMS7003;16428;47.836;35.106;2024-03-02T08:09:56;27.50;23.50;16.50
29460;PMS7003;16428;47.836;35.106;2024-03-02T08:12:23;37.75;27.00;20.50
29460;PMS7003;16428;47.836;35.106;2024-03-02T08:14:50;27.25;23.50;18.75
29460;PMS7003;16428;47.836;35.106;2024-03-02T08:17:17;31.75;25.75;18.75
29460;PMS7003;16428;47.836;35.106;2024-03-02T08:19:44;31.25;25.25;20.00
29460;PMS7003;16428;47.836;35.106;2024-03-02T08:22:11;26.75;26.25;19.50
29460;PMS7003;16428;47.836;35.106;2024-03-02T08:24:39;32.75;30.25;21.25
29460;PMS7003;16428;47.836;35.106;2024-03-02T08:27:07;30.75;24.50;18.50
29460;PMS7003;16428;47.836;35.106;2024-03-02T08:29:35;35.00;29.50;20.50
29460;PMS7003;16428;47.836;35.106;2024-03-02T08:32:03;43.00;35.25;25.00
29460;PMS7003;16428;47.836;35.106;2024-03-02T08:34:30;32.25;26.75;18.00
29460;PMS7003;16428;47.836;35.106;2024-03-02T08:36:57;27.25;23.75;16.00
29460;PMS7003;16428;47.836;35.106;2024-03-02T08:39:24;30.50;28.75;20.75
29460;PMS7003;16428;47.836;35.106;2024-03-02T08:41:52;33.75;31.25;23.00
29460;PMS7003;16428;47.836;35.106;2024-03-02T08:44:19;27.75;26.25;20.75
29460;PMS7003;16428;47.836;35.106;2024-03-02T08:46:47;33.00;28.75;19.50
29460;PMS7003;16428;47.836;35.106;2024-03-02T08:49:14;23.75;22.50;16.50
29460;PMS7003;16428;47.836;35.106;2024-03-02T08:51:41;23.75;22.00;17.00
29460;PMS7003;16428;47.836;35.106;2024-03-02T08:54:08;25.00;25.00;17.75
29460;PMS7003;16428;47.836;35.106;2024-03-02T08:56:35;30.00;24.25;20.50
29460;PMS7003;16428;47.836;35.106;2024-03-02T08:59:03;34.00;28.75;21.75
29460;PMS7003;16428;47.836;35.106;2024-03-02T09:01:30;27.25;26.25;18.25
29460;PMS7003;16428;47.836;35.106;2024-03-02T09:03:57;20.75;20.75;16.75
29460;PMS7003;16428;47.836;35.106;2024-03-02T09:06:24;16.25;15.50;14.50
29460;PMS7003;16428;47.836;35.106;2024-03-02T09:08:51;30.75;24.75;19.50
29460;PMS7003;16428;47.836;35.106;2024-03-02T09:11:18;31.75;27.25;18.50
29460;PMS7003;16428;47.836;35.106;2024-03-02T09:13:46;33.50;33.25;23.00
29460;PMS7003;16428;47.836;35.106;2024-03-02T09:16:13;33.25;25.00;15.75
29460;PMS7003;16428;47.836;35.106;2024-03-02T09:18:40;33.00;27.00;20.00
29460;PMS7003;16428;47.836;35.106;2024-03-02T09:21:07;28.25;25.75;19.50
29460;PMS7003;16428;47.836;35.106;2024-03-02T09:23:35;23.25;23.25;18.50
29460;PMS7003;16428;47.836;35.106;2024-03-02T09:26:02;22.00;20.25;15.50
29460;PMS7003;16428;47.836;35.106;2024-03-02T09:28:30;23.25;19.50;15.50
29460;PMS7003;16428;47.836;35.106;2024-03-02T09:30:57;23.75;23.75;18.00
29460;PMS7003;16428;47.836;35.106;2024-03-02T09:33:26;26.00;21.00;15.75
29460;PMS7003;16428;47.836;35.106;2024-03-02T09:35:54;27.25;19.25;16.25
29460;PMS7003;16428;47.836;35.106;2024-03-02T09:38:21;26.50;17.75;11.00
29460;PMS7003;16428;47.836;35.106;2024-03-02T09:40:48;29.75;25.25;18.25
29460;PMS7003;16428;47.836;35.106;2024-03-02T09:43:16;25.50;24.00;18.75
29460;PMS7003;16428;47.836;35.106;2024-03-02T09:45:44;23.75;20.50;16.50
29460;PMS7003;16428;47.836;35.106;2024-03-02T09:48:12;31.75;21.00;15.75
29460;PMS7003;16428;47.836;35.106;2024-03-02T09:50:39;21.50;21.50;17.75
29460;PMS7003;16428;47.836;35.106;2024-03-02T09:53:06;27.75;27.75;20.50
29460;PMS7003;16428;47.836;35.106;2024-03-02T09:55:35;32.00;23.50;15.75
29460;PMS7003;16428;47.836;35.106;2024-03-02T09:58:03;16.75;14.25;9.50
29460;PMS7003;16428;47.836;35.106;2024-03-02T10:00:30;25.50;21.75;17.50
29460;PMS7003;16428;47.836;35.106;2024-03-02T10:02:57;25.50;21.75;14.75
29460;PMS7003;16428;47.836;35.106;2024-03-02T10:05:25;23.75;19.50;15.25
29460;PMS7003;16428;47.836;35.106;2024-03-02T10:08:02;35.00;25.25;16.50
29460;PMS7003;16428;47.836;35.106;2024-03-02T10:10:34;26.75;24.25;16.75
29460;PMS7003;16428;47.836;35.106;2024-03-02T10:13:10;25.25;17.50;12.75
29460;PMS7003;16428;47.836;35.106;2024-03-02T10:15:39;29.25;22.50;16.50
29460;PMS7003;16428;47.836;35.106;2024-03-02T10:18:11;29.75;20.25;16.00
29460;PMS7003;16428;47.836;35.106;2024-03-02T10:20:40;23.75;23.00;15.75
29460;PMS7003;16428;47.836;35.106;2024-03-02T10:23:11;20.25;20.25;15.75
29460;PMS7003;16428;47.836;35.106;2024-03-02T10:25:40;25.50;21.50;16.00
29460;PMS7003;16428;47.836;35.106;2024-03-02T10:28:20;14.00;12.25;9.50
29460;PMS7003;16428;47.836;35.106;2024-03-02T10:30:48;30.25;20.25;17.25
29460;PMS7003;16428;47.836;35.106;2024-03-02T10:33:19;27.50;21.00;16.75
29460;PMS7003;16428;47.836;35.106;2024-03-02T10:35:47;20.00;19.75;15.00
29460;PMS7003;16428;47.836;35.106;2024-03-02T10:38:17;20.75;20.50;15.25
29460;PMS7003;16428;47.836;35.106;2024-03-02T10:40:47;26.50;23.75;18.00
29460;PMS7003;16428;47.836;35.106;2024-03-02T10:43:15;31.75;25.25;18.00
29460;PMS7003;16428;47.836;35.106;2024-03-02T10:45:43;27.50;23.75;17.00
29460;PMS7003;16428;47.836;35.106;2024-03-02T10:48:14;29.50;27.75;19.00
29460;PMS7003;16428;47.836;35.106;2024-03-02T10:50:42;33.25;25.75;19.25
29460;PMS7003;16428;47.836;35.106;2024-03-02T10:53:09;30.25;27.25;20.00
29460;PMS7003;16428;47.836;35.106;2024-03-02T10:55:37;28.25;23.25;16.00
29460;PMS7003;16428;47.836;35.106;2024-03-02T10:58:05;26.00;20.25;14.50
29460;PMS7003;16428;47.836;35.106;2024-03-02T11:00:34;29.00;27.00;18.00
29460;PMS7003;16428;47.836;35.106;2024-03-02T11:03:05;26.50;25.75;19.25
29460;PMS7003;16428;47.836;35.106;2024-03-02T11:05:36;31.75;28.50;21.50
29460;PMS7003;16428;47.836;35.106;2024-03-02T11:08:08;29.75;24.75;18.75
29460;PMS7003;16428;47.836;35.106;2024-03-02T11:13:31;35.00;31.00;22.75
29460;PMS7003;16428;47.836;35.106;2024-03-02T11:16:05;28.50;27.50;21.00
29460;PMS7003;16428;47.836;35.106;2024-03-02T11:18:37;42.25;32.50;22.75
29460;PMS7003;16428;47.836;35.106;2024-03-02T11:21:07;36.00;27.25;20.00
29460;PMS7003;16428;47.836;35.106;2024-03-02T11:23:34;36.25;30.50;21.00
29460;PMS7003;16428;47.836;35.106;2024-03-02T11:26:17;28.50;26.75;20.50
29460;PMS7003;16428;47.836;35.106;2024-03-02T11:28:45;33.75;28.00;18.75
29460;PMS7003;16428;47.836;35.106;2024-03-02T11:31:13;34.25;31.00;22.75
29460;PMS7003;16428;47.836;35.106;2024-03-02T11:33:40;35.00;32.00;23.75
29460;PMS7003;16428;47.836;35.106;2024-03-02T11:36:07;49.00;39.00;26.50
29460;PMS7003;16428;47.836;35.106;2024-03-02T11:38:38;40.50;33.75;25.00
29460;PMS7003;16428;47.836;35.106;2024-03-02T11:41:06;48.25;40.00;26.00
29460;PMS7003;16428;47.836;35.106;2024-03-02T11:43:38;38.00;33.75;24.25
29460;PMS7003;16428;47.836;35.106;2024-03-02T11:46:08;40.50;33.00;23.25
29460;PMS7003;16428;47.836;35.106;2024-03-02T11:48:36;33.75;28.75;21.25
29460;PMS7003;16428;47.836;35.106;2024-03-02T11:51:06;40.50;36.75;26.00
29460;PMS7003;16428;47.836;35.106;2024-03-02T11:53:33;32.25;27.00;23.25
29460;PMS7003;16428;47.836;35.106;2024-03-02T11:56:06;33.50;31.00;20.75
29460;PMS7003;16428;47.836;35.106;2024-03-02T11:58:36;48.25;35.50;24.50
29460;PMS7003;16428;47.836;35.106;2024-03-02T12:01:04;39.00;35.00;24.50
29460;PMS7003;16428;47.836;35.106;2024-03-02T12:03:32;34.00;32.75;23.00
29460;PMS7003;16428;47.836;35.106;2024-03-02T12:06:04;36.50;31.25;21.00
29460;PMS7003;16428;47.836;35.106;2024-03-02T12:08:32;35.50;33.75;24.00
29460;PMS7003;16428;47.836;35.106;2024-03-02T12:11:00;41.00;32.50;24.00
29460;PMS7003;16428;47.836;35.106;2024-03-02T12:13:31;42.50;35.75;24.75
29460;PMS7003;16428;47.836;35.106;2024-03-02T12:15:58;36.00;30.75;21.50
29460;PMS7003;16428;47.836;35.106;2024-03-02T12:18:26;33.25;30.50;21.75
29460;PMS7003;16428;47.836;35.106;2024-03-02T12:20:53;37.00;34.00;23.50
29460;PMS7003;16428;47.836;35.106;2024-03-02T12:23:24;37.75;31.75;24.25
29460;PMS7003;16428;47.836;35.106;2024-03-02T12:25:52;40.75;36.50;23.50
29460;PMS7003;16428;47.836;35.106;2024-03-02T12:28:21;38.25;31.50;21.75
29460;PMS7003;16428;47.836;35.106;2024-03-02T12:30:48;35.50;30.00;23.25
29460;PMS7003;16428;47.836;35.106;2024-03-02T12:33:16;34.00;29.75;22.75
29460;PMS7003;16428;47.836;35.106;2024-03-02T12:35:48;35.50;29.00;20.50
29460;PMS7003;16428;47.836;35.106;2024-03-02T12:38:17;40.50;31.75;23.50
29460;PMS7003;16428;47.836;35.106;2024-03-02T12:40:47;34.00;29.50;23.00
29460;PMS7003;16428;47.836;35.106;2024-03-02T12:43:17;28.50;28.50;21.50
29460;PMS7003;16428;47.836;35.106;2024-03-02T12:45:45;35.50;29.50;21.50
29460;PMS7003;16428;47.836;35.106;2024-03-02T12:48:14;35.00;28.00;22.00
29460;PMS7003;16428;47.836;35.106;2024-03-02T12:50:42;38.00;31.25;22.00
29460;PMS7003;16428;47.836;35.106;2024-03-02T12:53:14;32.25;29.50;22.50
29460;PMS7003;16428;47.836;35.106;2024-03-02T12:55:44;39.50;33.00;23.75
29460;PMS7003;16428;47.836;35.106;2024-03-02T12:58:19;32.25;29.50;20.50
29460;PMS7003;16428;47.836;35.106;2024-03-02T13:01:14;32.00;25.50;20.75
29460;PMS7003;16428;47.836;35.106;2024-03-02T13:03:42;37.00;32.00;21.00
29460;PMS7003;16428;47.836;35.106;2024-03-02T13:06:10;33.75;31.75;22.00
29460;PMS7003;16428;47.836;35.106;2024-03-02T13:08:37;30.00;28.50;20.50
29460;PMS7003;16428;47.836;35.106;2024-03-02T13:11:06;26.50;26.50;20.00
29460;PMS7003;16428;47.836;35.106;2024-03-02T13:13:34;28.00;24.50;16.00
29460;PMS7003;16428;47.836;35.106;2024-03-02T13:16:03;36.00;30.25;20.25
29460;PMS7003;16428;47.836;35.106;2024-03-02T13:18:34;31.50;24.00;17.75
29460;PMS7003;16428;47.836;35.106;2024-03-02T13:21:03;35.75;30.75;22.75
29460;PMS7003;16428;47.836;35.106;2024-03-02T13:23:31;30.25;30.00;21.50
29460;PMS7003;16428;47.836;35.106;2024-03-02T13:25:59;54.75;43.00;25.25
29460;PMS7003;16428;47.836;35.106;2024-03-02T13:28:29;51.00;38.00;26.00
29460;PMS7003;16428;47.836;35.106;2024-03-02T13:30:57;36.50;34.25;21.00
29460;PMS7003;16428;47.836;35.106;2024-03-02T13:33:25;33.25;33.00;20.75
29460;PMS7003;16428;47.836;35.106;2024-03-02T13:35:53;48.50;37.00;25.00
29460;PMS7003;16428;47.836;35.106;2024-03-02T13:38:21;44.00;34.25;23.00
29460;PMS7003;16428;47.836;35.106;2024-03-02T13:40:49;41.25;33.75;23.00
29460;PMS7003;16428;47.836;35.106;2024-03-02T13:43:18;38.25;32.75;23.25
29460;PMS7003;16428;47.836;35.106;2024-03-02T13:45:47;41.50;37.00;25.25
29460;PMS7003;16428;47.836;35.106;2024-03-02T13:48:15;38.50;33.75;22.50
29460;PMS7003;16428;47.836;35.106;2024-03-02T13:50:43;32.25;30.50;19.50
29460;PMS7003;16428;47.836;35.106;2024-03-02T13:53:13;45.00;37.75;26.50
29460;PMS7003;16428;47.836;35.106;2024-03-02T13:55:40;38.00;35.50;25.25